Jasper County Airport-Bell Field

About
Name: Jasper County Airport-Bell Field
Identifier:  JAS/KJAS
Local Time:  17. Aug 23:44 CDT
Location
Flights per Day
0 flights
Distance: 278km (173mi)
Punctuality
50% (0 flights per day delayed)
Delay Average: 46 minutes
Current Weather
 27 C (Humidity: 94%)
  0kt (0km/h / 0mph) from 0°
  Scattered clouds at 2,400 feet (731 meter)
  Scattered clouds at 3,000 feet (914 meter)
  11km (7 mi.)
 METAR KJAS 180415Z AUTO 00000KT 7SM SCT024 SCT030 27/26 A2994 RMK AO2 T02720260

Current Flights

Departures
Number Departure To Airline
Arrivals
Number Arrival From Airline

Current Delays

Departures
N/A
Arrivals
N/A

Destinations

Top Destinations
Airport Flights
per week
Seats
per week
  Midland (MAF) 0 - 0 0
  Baton Rouge (BTR) 0 - 0 0
  Nacogdoches (OCH) 0 - 0 0

Airlines & Planes

Top Airlines
Airline Flights
per Day
Seats
per Day
  Nolinor Aviation 0 -
  Flybe Nordic 0 -
Top Plane Types
Model Flights Seats
Beech B300 Super King Air 0.1/day - 0